Time;durP1;ratioP1;P1;durP2;ratioP2;P2;SDS_P1;SDS_P2;PMS_P1;PMS_P2;Temp;Humidity;BMP_temperature;BMP_pressure;BME280_temperature;BME280_humidity;BME280_pressure;Samples;Min_cycle;Max_cycle;Signal;HPM_P1;HPM_P2
2022/08/25 00:00:36;;;;;;;;;;;24.90;98.40;;;;;;5093248;28;19912;-88
2022/08/25 00:03:01;;;;;;;;;;;25.00;97.30;;;;;;5075315;28;20391;-88
2022/08/25 00:05:28;;;;;;;;;;;25.00;95.40;;;;;;5075153;28;19908;-88
2022/08/25 00:07:54;;;;;;;;;;;25.00;97.60;;;;;;5075101;28;19934;-87
2022/08/25 00:10:20;;;;;;;;;;;25.10;97.60;;;;;;5075217;28;19915;-88
2022/08/25 00:12:45;;;;;;;;;;;25.10;98.40;;;;;;5075296;28;19912;-88
2022/08/25 00:15:11;;;;;;;;;;;25.10;98.20;;;;;;5075193;28;19912;-87
2022/08/25 00:17:36;;;;;;;;;;;25.10;98.10;;;;;;5093079;28;20398;-87
2022/08/25 00:20:03;;;;;;;;;;;25.10;99.50;;;;;;5075154;28;19916;-87
2022/08/25 00:22:28;;;;;;;;;;;25.10;97.90;;;;;;5075035;28;20022;-86
2022/08/25 00:24:54;;;;;;;;;;;25.10;98.00;;;;;;5075025;28;20049;-86
2022/08/25 00:27:20;;;;;;;;;;;25.10;97.90;;;;;;5093003;28;20374;-86
2022/08/25 00:29:46;;;;;;;;;;;25.00;98.30;;;;;;5093078;28;19908;-86
2022/08/25 00:32:12;;;;;;;;;;;25.00;98.40;;;;;;5074925;28;19915;-85
2022/08/25 00:34:37;;;;;;;;;;;24.90;99.80;;;;;;5074713;28;19908;-86
2022/08/25 00:37:06;;;;;;;;;;;24.80;99.90;;;;;;5074710;28;20003;-86
2022/08/25 00:39:31;;;;;;;;;;;24.80;99.90;;;;;;5074652;28;19962;-86
2022/08/25 00:41:58;;;;;;;;;;;24.70;99.90;;;;;;5074813;28;19939;-86
2022/08/25 00:44:25;;;;;;;;;;;24.70;99.90;;;;;;5074926;28;20019;-86
2022/08/25 00:46:52;;;;;;;;;;;24.60;99.90;;;;;;5075203;28;19908;-86
2022/08/25 00:49:20;;;;;;;;;;;24.60;99.90;;;;;;5078771;28;19938;-86
2022/08/25 00:51:49;;;;;;;;;;;24.60;99.90;;;;;;5096917;28;20364;-85
2022/08/25 00:54:17;;;;;;;;;;;24.60;99.90;;;;;;5096876;28;19943;-85
2022/08/25 00:56:44;;;;;;;;;;;24.60;99.90;;;;;;5078430;28;19908;-86
2022/08/25 00:59:09;;;;;;;;;;;24.60;99.90;;;;;;5078347;28;19908;-86
2022/08/25 01:01:35;;;;;;;;;;;24.60;99.90;;;;;;5078537;28;20017;-86
2022/08/25 01:04:01;;;;;;;;;;;24.60;99.90;;;;;;5078439;28;19908;-86
2022/08/25 01:06:28;;;;;;;;;;;24.60;99.90;;;;;;5078247;28;19991;-86
2022/08/25 01:08:54;;;;;;;;;;;24.60;99.90;;;;;;5078451;28;19968;-86
2022/08/25 01:11:20;;;;;;;;;;;24.60;99.80;;;;;;5078306;28;20299;-85
2022/08/25 01:13:51;;;;;;;;;;;24.60;99.90;;;;;;5078268;28;19914;-86
2022/08/25 01:16:17;;;;;;;;;;;24.60;99.90;;;;;;5078093;28;19909;-85
2022/08/25 01:18:44;;;;;;;;;;;24.60;99.90;;;;;;5077842;28;19908;-85
2022/08/25 01:21:10;;;;;;;;;;;24.60;99.90;;;;;;5077790;28;19961;-84
2022/08/25 01:23:35;;;;;;;;;;;24.60;99.90;;;;;;5077747;28;19912;-84
2022/08/25 01:26:06;;;;;;;;;;;24.60;99.90;;;;;;5096068;28;20002;-87
2022/08/25 01:28:32;;;;;;;;;;;24.50;99.90;;;;;;5078116;28;20321;-86
2022/08/25 01:30:58;;;;;;;;;;;24.50;99.90;;;;;;5078012;28;19958;-85
2022/08/25 01:33:24;;;;;;;;;;;24.50;99.90;;;;;;5078017;28;19908;-86
2022/08/25 01:35:49;;;;;;;;;;;24.40;99.90;;;;;;5077766;28;19916;-86
2022/08/25 01:38:15;;;;;;;;;;;24.40;99.90;;;;;;5077678;28;20341;-86
2022/08/25 01:40:41;;;;;;;;;;;24.40;99.90;;;;;;5077745;28;20003;-86
2022/08/25 01:43:10;;;;;;;;;;;24.30;99.90;;;;;;5095847;28;19908;-86
2022/08/25 01:45:37;;;;;;;;;;;24.30;99.90;;;;;;5077523;28;19915;-86
2022/08/25 01:48:04;;;;;;;;;;;24.20;99.90;;;;;;5095765;28;19908;-85
2022/08/25 01:50:29;;;;;;;;;;;24.20;99.90;;;;;;5077591;28;19912;-85
2022/08/25 01:52:55;;;;;;;;;;;24.10;99.90;;;;;;5077541;28;19962;-85
2022/08/25 01:55:20;;;;;;;;;;;24.00;99.70;;;;;;5077493;28;19915;-86
2022/08/25 01:57:46;;;;;;;;;;;24.00;99.90;;;;;;5076975;28;19959;-86
2022/08/25 02:00:13;;;;;;;;;;;23.90;99.90;;;;;;5077362;28;20364;-86
2022/08/25 02:02:39;;;;;;;;;;;23.80;99.90;;;;;;5077351;28;20295;-86
2022/08/25 02:05:05;;;;;;;;;;;23.70;99.90;;;;;;5077294;28;19966;-86
2022/08/25 02:07:31;;;;;;;;;;;23.60;99.90;;;;;;5077227;28;20294;-86
2022/08/25 02:09:57;;;;;;;;;;;23.50;99.90;;;;;;5077275;28;20279;-86
2022/08/25 02:12:22;;;;;;;;;;;23.40;99.90;;;;;;5077275;28;19909;-86
2022/08/25 02:14:47;;;;;;;;;;;23.40;99.90;;;;;;5077188;28;20446;-87
2022/08/25 02:17:13;;;;;;;;;;;23.30;99.90;;;;;;5076993;28;19908;-87
2022/08/25 02:19:38;;;;;;;;;;;23.20;99.90;;;;;;5077034;28;20260;-89
2022/08/25 02:22:04;;;;;;;;;;;23.10;99.90;;;;;;5095241;28;19915;-89
2022/08/25 02:24:30;;;;;;;;;;;23.10;99.90;;;;;;5077033;28;19966;-89
2022/08/25 02:26:56;;;;;;;;;;;23.00;99.90;;;;;;5076776;28;19947;-90
2022/08/25 02:29:22;;;;;;;;;;;22.90;99.90;;;;;;5095025;28;19909;-88
2022/08/25 02:31:48;;;;;;;;;;;22.80;99.90;;;;;;5076839;28;19912;-90
2022/08/25 02:34:14;;;;;;;;;;;22.80;99.90;;;;;;5076735;28;19998;-89
2022/08/25 02:36:40;;;;;;;;;;;22.70;99.90;;;;;;5076549;28;20379;-89
2022/08/25 02:39:06;;;;;;;;;;;22.60;99.90;;;;;;5076772;28;19920;-88
2022/08/25 02:41:32;;;;;;;;;;;22.60;99.90;;;;;;5076467;28;19908;-87
2022/08/25 02:43:58;;;;;;;;;;;22.60;99.90;;;;;;5076628;28;19908;-88
2022/08/25 02:46:24;;;;;;;;;;;22.50;99.90;;;;;;5094421;28;20408;-88
2022/08/25 02:48:51;;;;;;;;;;;22.50;99.90;;;;;;5094508;28;20010;-88
2022/08/25 02:51:18;;;;;;;;;;;22.40;99.90;;;;;;5094557;28;19908;-88
2022/08/25 02:53:44;;;;;;;;;;;22.40;99.90;;;;;;5076405;28;19908;-89
2022/08/25 02:56:10;;;;;;;;;;;22.40;99.90;;;;;;5076259;28;20365;-88
2022/08/25 02:58:37;;;;;;;;;;;22.30;99.90;;;;;;5076208;28;20033;-88
2022/08/25 03:01:03;;;;;;;;;;;22.30;99.90;;;;;;5076145;28;19948;-88
2022/08/25 03:03:28;;;;;;;;;;;22.30;99.90;;;;;;5076182;28;19973;-88
2022/08/25 03:05:56;;;;;;;;;;;22.30;99.90;;;;;;5093929;28;20521;-88
2022/08/25 03:08:22;;;;;;;;;;;22.30;99.90;;;;;;5076025;28;19908;-88
2022/08/25 03:10:47;;;;;;;;;;;22.30;99.90;;;;;;5075323;28;19918;-88
2022/08/25 03:13:13;;;;;;;;;;;22.30;99.90;;;;;;5075944;28;19908;-89
2022/08/25 03:15:41;;;;;;;;;;;22.30;99.90;;;;;;5093862;28;19908;-88
2022/08/25 03:18:07;;;;;;;;;;;22.20;99.90;;;;;;5075791;28;19908;-88
2022/08/25 03:20:34;;;;;;;;;;;22.10;99.90;;;;;;5075748;28;20424;-89
2022/08/25 03:23:01;;;;;;;;;;;22.10;99.90;;;;;;5075778;28;19915;-88
2022/08/25 03:28:10;;;;;;;;;;;22.00;99.90;;;;;;5094156;28;19916;-89
2022/08/25 03:30:36;;;;;;;;;;;22.00;99.90;;;;;;5075543;28;19908;-88
2022/08/25 03:33:01;;;;;;;;;;;22.00;99.90;;;;;;5093741;28;19934;-88
2022/08/25 03:35:27;;;;;;;;;;;22.00;99.90;;;;;;5075648;28;19958;-89
2022/08/25 03:37:56;;;;;;;;;;;21.90;99.90;;;;;;5075328;28;19908;-89
2022/08/25 03:40:22;;;;;;;;;;;21.90;99.90;;;;;;5075410;28;19919;-88
2022/08/25 03:42:47;;;;;;;;;;;22.00;99.90;;;;;;5075596;28;19973;-88
2022/08/25 03:45:15;;;;;;;;;;;21.90;99.90;;;;;;5075364;28;19995;-88
2022/08/25 03:47:41;;;;;;;;;;;21.90;99.90;;;;;;5075084;28;19908;-88
2022/08/25 03:50:09;;;;;;;;;;;21.90;99.90;;;;;;5075177;28;20386;-87
2022/08/25 03:52:35;;;;;;;;;;;21.90;99.90;;;;;;5075259;28;19912;-87
2022/08/25 03:55:01;;;;;;;;;;;21.90;99.90;;;;;;5075083;28;20004;-88
2022/08/25 03:57:27;;;;;;;;;;;21.90;99.90;;;;;;5075231;28;20450;-88
2022/08/25 03:59:52;;;;;;;;;;;21.90;99.90;;;;;;5075293;28;20014;-88
2022/08/25 04:02:18;;;;;;;;;;;21.80;99.90;;;;;;5075058;28;19908;-88
2022/08/25 04:04:44;;;;;;;;;;;21.80;99.90;;;;;;5075089;28;19966;-89
2022/08/25 04:07:09;;;;;;;;;;;21.70;99.90;;;;;;5075034;28;20370;-88
2022/08/25 04:09:35;;;;;;;;;;;21.70;99.90;;;;;;5075012;28;19963;-88
2022/08/25 04:12:00;;;;;;;;;;;21.70;99.90;;;;;;5075064;28;19908;-88
2022/08/25 04:14:26;;;;;;;;;;;21.60;99.90;;;;;;5075042;28;19915;-89
2022/08/25 04:16:51;;;;;;;;;;;21.50;99.90;;;;;;5074804;28;19974;-89
2022/08/25 04:19:17;;;;;;;;;;;21.50;99.90;;;;;;5074778;28;19916;-88
2022/08/25 04:21:42;;;;;;;;;;;21.50;99.90;;;;;;5074875;28;19908;-89
2022/08/25 04:24:09;;;;;;;;;;;21.50;99.90;;;;;;5074911;28;20290;-88
2022/08/25 04:26:40;;;;;;;;;;;21.40;99.90;;;;;;5074630;28;19908;-88
2022/08/25 04:29:06;;;;;;;;;;;21.40;99.90;;;;;;5074641;28;19912;-88
2022/08/25 04:31:32;;;;;;;;;;;21.40;99.90;;;;;;5092977;28;19944;-88
2022/08/25 04:33:59;;;;;;;;;;;21.40;99.90;;;;;;5075184;28;20410;-87
2022/08/25 04:36:25;;;;;;;;;;;21.30;99.90;;;;;;5074642;28;20375;-88
2022/08/25 04:38:50;;;;;;;;;;;21.30;99.90;;;;;;5074718;28;20015;-88
2022/08/25 04:41:18;;;;;;;;;;;21.30;99.90;;;;;;5074643;28;20291;-88
2022/08/25 04:43:44;;;;;;;;;;;21.30;99.90;;;;;;5092726;28;19909;-88
2022/08/25 04:46:11;;;;;;;;;;;21.30;99.90;;;;;;5092551;28;19908;-88
2022/08/25 04:48:38;;;;;;;;;;;21.30;99.90;;;;;;5074860;28;20402;-88
2022/08/25 04:51:08;;;;;;;;;;;21.30;99.90;;;;;;5074582;28;19931;-87
2022/08/25 04:53:34;;;;;;;;;;;21.30;99.90;;;;;;5092701;28;19909;-88
2022/08/25 04:55:59;;;;;;;;;;;21.30;99.90;;;;;;5074443;28;19915;-88
2022/08/25 04:58:26;;;;;;;;;;;21.30;99.90;;;;;;5092605;28;19908;-88
2022/08/25 05:00:52;;;;;;;;;;;21.30;99.90;;;;;;5092577;28;19999;-88
2022/08/25 05:03:17;;;;;;;;;;;21.30;99.90;;;;;;5074524;28;20344;-88
2022/08/25 05:05:43;;;;;;;;;;;21.30;99.90;;;;;;5092374;28;20412;-88
2022/08/25 05:08:09;;;;;;;;;;;21.30;99.90;;;;;;5074343;28;19908;-88
2022/08/25 05:10:37;;;;;;;;;;;21.30;99.90;;;;;;5074407;28;19908;-88
2022/08/25 05:13:03;;;;;;;;;;;21.30;99.90;;;;;;5074329;28;19908;-88
2022/08/25 05:18:12;;;;;;;;;;;21.40;99.90;;;;;;5092561;28;19915;-88
2022/08/25 05:20:38;;;;;;;;;;;21.40;99.90;;;;;;5092275;28;19912;-89
2022/08/25 05:23:03;;;;;;;;;;;21.40;99.90;;;;;;5074389;28;20446;-88
2022/08/25 05:25:29;;;;;;;;;;;21.50;99.90;;;;;;5074296;28;19908;-87
2022/08/25 05:27:55;;;;;;;;;;;21.50;99.90;;;;;;5074084;28;19913;-88
2022/08/25 05:30:20;;;;;;;;;;;21.50;99.90;;;;;;5074211;28;19982;-88
2022/08/25 05:32:46;;;;;;;;;;;21.60;99.90;;;;;;5074632;28;20283;-87
2022/08/25 05:35:11;;;;;;;;;;;21.60;99.90;;;;;;5077868;28;19953;-88
2022/08/25 05:37:37;;;;;;;;;;;21.70;99.90;;;;;;5077707;28;20393;-88
2022/08/25 05:40:04;;;;;;;;;;;21.80;99.90;;;;;;5077473;28;19916;-89
2022/08/25 05:42:31;;;;;;;;;;;21.80;99.90;;;;;;5077677;28;20414;-87
2022/08/25 05:44:57;;;;;;;;;;;21.90;99.90;;;;;;5077716;28;19908;-88
2022/08/25 05:47:22;;;;;;;;;;;21.90;99.90;;;;;;5077433;28;19958;-88
2022/08/25 05:49:48;;;;;;;;;;;22.00;99.90;;;;;;5077576;28;19908;-89
2022/08/25 05:52:14;;;;;;;;;;;22.00;99.90;;;;;;5095671;28;20283;-89
2022/08/25 05:54:39;;;;;;;;;;;22.10;99.90;;;;;;5077588;28;20000;-89
2022/08/25 05:57:05;;;;;;;;;;;22.20;99.90;;;;;;5077267;28;19912;-88
2022/08/25 05:59:31;;;;;;;;;;;22.30;99.90;;;;;;5077282;28;19919;-88
2022/08/25 06:04:40;;;;;;;;;;;22.50;99.90;;;;;;5095485;28;19922;-89
2022/08/25 06:07:06;;;;;;;;;;;22.70;99.90;;;;;;5077124;28;20387;-89
2022/08/25 06:09:31;;;;;;;;;;;22.80;99.90;;;;;;5095356;28;19916;-87
2022/08/25 06:11:57;;;;;;;;;;;22.90;99.90;;;;;;5095284;28;19915;-89
2022/08/25 06:14:23;;;;;;;;;;;23.00;99.90;;;;;;5077120;28;20053;-89
2022/08/25 06:16:50;;;;;;;;;;;23.10;99.90;;;;;;5076807;28;19908;-89
2022/08/25 06:19:16;;;;;;;;;;;23.20;99.90;;;;;;5076927;28;19953;-88
2022/08/25 06:21:41;;;;;;;;;;;23.40;99.90;;;;;;5077191;28;20002;-86
2022/08/25 06:24:09;;;;;;;;;;;23.50;99.90;;;;;;5076946;28;19908;-87
2022/08/25 06:26:35;;;;;;;;;;;23.70;99.90;;;;;;5076052;28;19954;-85
2022/08/25 06:29:00;;;;;;;;;;;23.80;99.90;;;;;;5092100;28;19908;-85
2022/08/25 06:31:25;;;;;;;;;;;23.90;99.90;;;;;;5076787;28;20313;-84
2022/08/25 06:33:51;;;;;;;;;;;24.10;99.90;;;;;;5076664;28;20421;-85
2022/08/25 06:36:18;;;;;;;;;;;24.20;99.90;;;;;;5076443;28;19947;-84
2022/08/25 06:38:44;;;;;;;;;;;24.30;99.90;;;;;;5094493;28;20387;-84
2022/08/25 06:41:11;;;;;;;;;;;24.40;99.90;;;;;;5076457;28;20375;-84
2022/08/25 06:43:37;;;;;;;;;;;24.50;99.90;;;;;;5076434;28;19914;-84
2022/08/25 06:46:10;;;;;;;;;;;24.70;99.90;;;;;;5075218;28;19908;-85
2022/08/25 06:48:36;;;;;;;;;;;24.80;99.90;;;;;;5076192;28;19915;-85
2022/08/25 06:51:08;;;;;;;;;;;24.90;99.90;;;;;;5076242;28;19908;-85
2022/08/25 06:53:34;;;;;;;;;;;25.00;99.90;;;;;;5076349;28;20037;-84
2022/08/25 06:56:00;;;;;;;;;;;25.10;99.90;;;;;;5094198;28;20390;-84
2022/08/25 06:58:25;;;;;;;;;;;25.20;99.90;;;;;;5075869;28;19912;-85
2022/08/25 07:00:51;;;;;;;;;;;25.30;99.90;;;;;;5076129;28;19912;-84
2022/08/25 07:03:16;;;;;;;;;;;25.30;99.90;;;;;;5076185;28;19915;-84
2022/08/25 07:05:49;;;;;;;;;;;25.40;99.90;;;;;;5094104;28;20397;-85
2022/08/25 07:08:14;;;;;;;;;;;25.50;99.90;;;;;;5076074;28;19908;-85
2022/08/25 07:10:40;;;;;;;;;;;25.60;99.90;;;;;;5093993;28;20329;-84
2022/08/25 07:13:05;;;;;;;;;;;25.70;99.90;;;;;;5075991;28;20429;-84
2022/08/25 07:15:31;;;;;;;;;;;25.80;99.90;;;;;;5075681;28;19908;-87
2022/08/25 07:17:56;;;;;;;;;;;25.90;99.90;;;;;;5075421;28;19908;-87
2022/08/25 07:20:21;;;;;;;;;;;25.90;99.90;;;;;;5075718;28;20283;-86
2022/08/25 07:22:47;;;;;;;;;;;25.90;99.90;;;;;;5093936;28;19908;-87
2022/08/25 07:25:12;;;;;;;;;;;26.00;99.90;;;;;;5075635;28;19969;-88
2022/08/25 07:27:38;;;;;;;;;;;26.10;99.90;;;;;;5075409;28;19908;-87
2022/08/25 07:30:05;;;;;;;;;;;26.10;99.90;;;;;;5093741;28;20278;-86
2022/08/25 07:32:30;;;;;;;;;;;26.20;99.90;;;;;;5075535;28;19908;-87
2022/08/25 07:35:14;;;;;;;;;;;26.30;99.90;;;;;;5075552;28;19908;-87
2022/08/25 07:37:41;;;;;;;;;;;26.30;99.90;;;;;;5075369;28;20355;-88
2022/08/25 07:40:07;;;;;;;;;;;26.40;99.90;;;;;;5075130;28;19916;-87
2022/08/25 07:42:34;;;;;;;;;;;26.40;99.90;;;;;;5075368;28;19912;-88
2022/08/25 07:45:02;;;;;;;;;;;26.50;99.90;;;;;;5064405;28;20394;-88
2022/08/25 07:53:42;;;;;;;;;;;26.70;99.90;;;;;;5093359;28;19915;-88
2022/08/25 07:56:46;;;;;;;;;;;26.90;99.90;;;;;;5073814;28;19908;-88
2022/08/25 07:59:12;;;;;;;;;;;27.00;99.90;;;;;;5014181;28;19971;-88
2022/08/25 08:01:39;;;;;;;;;;;27.10;99.90;;;;;;5014216;28;19913;-90
2022/08/25 08:04:05;;;;;;;;;;;27.10;99.90;;;;;;5043273;28;19916;-88
2022/08/25 08:06:34;;;;;;;;;;;27.10;99.90;;;;;;5074799;28;20315;-89
2022/08/25 08:09:01;;;;;;;;;;;27.10;99.90;;;;;;5092867;28;19956;-88
2022/08/25 08:11:29;;;;;;;;;;;27.20;99.90;;;;;;5075106;28;19916;-88
2022/08/25 08:13:55;;;;;;;;;;;27.20;99.90;;;;;;5093392;28;19912;-88
2022/08/25 08:16:22;;;;;;;;;;;27.30;99.90;;;;;;5074725;28;19908;-88
2022/08/25 08:19:12;;;;;;;;;;;27.40;99.90;;;;;;5074774;28;19908;-88
2022/08/25 08:21:49;;;;;;;;;;;27.50;99.90;;;;;;5090632;28;19943;-89
2022/08/25 08:27:38;;;;;;;;;;;27.80;99.90;;;;;;5026866;28;19936;-89
2022/08/25 08:36:25;;;;;;;;;;;28.10;99.90;;;;;;4991649;28;19917;-87
2022/08/25 08:38:50;;;;;;;;;;;28.40;99.90;;;;;;5038572;22;19930;-74
2022/08/25 08:44:06;;;;;;;;;;;30.80;99.50;;;;;;5104673;28;19920;-78
2022/08/25 08:47:01;;;;;;;;;;;32.70;94.20;;;;;;5106800;28;19908;-78
2022/08/25 08:49:31;;;;;;;;;;;34.20;88.80;;;;;;5071783;28;19913;-79
2022/08/25 08:51:59;;;;;;;;;;;35.40;78.80;;;;;;5099664;28;19912;-79
2022/08/25 08:54:27;;;;;;;;;;;36.70;71.90;;;;;;5094402;28;19939;-79
2022/08/25 08:57:06;;;;;;;;;;;37.90;66.00;;;;;;5094332;28;19912;-79
2022/08/25 08:59:58;;;;;;;;;;;38.90;58.20;;;;;;5093646;28;19961;-79
2022/08/25 09:02:27;;;;;;;;;;;39.70;54.30;;;;;;5089466;28;19912;-79
2022/08/25 09:05:05;;;;;;;;;;;40.90;51.60;;;;;;5092827;28;20359;-79
2022/08/25 09:07:34;;;;;;;;;;;41.70;47.70;;;;;;5093748;28;19908;-79
2022/08/25 09:09:59;;;;;;;;;;;42.40;46.00;;;;;;5097895;28;19951;-79
2022/08/25 09:12:32;;;;;;;;;;;43.10;44.80;;;;;;5097710;28;20397;-79
2022/08/25 09:15:11;;;;;;;;;;;43.70;43.30;;;;;;5098028;28;20332;-79
2022/08/25 09:18:02;;;;;;;;;;;44.40;42.20;;;;;;5097553;28;20295;-79
2022/08/25 09:20:51;;;;;;;;;;;44.90;40.90;;;;;;5097202;28;19961;-79
2022/08/25 09:23:16;;;;;;;;;;;45.30;38.30;;;;;;5098392;28;19908;-79
2022/08/25 09:25:48;;;;;;;;;;;45.70;37.20;;;;;;5096843;28;20389;-79
2022/08/25 09:28:27;;;;;;;;;;;45.90;99.90;;;;;;5097691;28;19919;-79
2022/08/25 09:30:56;;;;;;;;;;;45.80;99.90;;;;;;5096096;28;19909;-79
2022/08/25 09:33:23;;;;;;;;;;;45.40;99.90;;;;;;5096978;28;19943;-80
2022/08/25 09:35:50;;;;;;;;;;;45.20;99.90;;;;;;5093717;28;19914;-79
2022/08/25 09:38:15;;;;;;;;;;;45.50;99.90;;;;;;5093763;28;19941;-79
2022/08/25 09:40:44;;;;;;;;;;;45.60;99.90;;;;;;5093489;28;19919;-80
2022/08/25 09:43:23;;;;;;;;;;;45.10;99.90;;;;;;5098999;28;20045;-79
2022/08/25 09:45:56;;;;;;;;;;;44.70;99.90;;;;;;5100715;28;19908;-80
2022/08/25 09:48:36;;;;;;;;;;;44.60;99.90;;;;;;5111631;28;19918;-79
2022/08/25 09:51:16;;;;;;;;;;;45.00;99.90;;;;;;5114061;28;19908;-79
2022/08/25 09:53:56;;;;;;;;;;;45.00;99.90;;;;;;5114241;28;19914;-79
2022/08/25 09:56:30;;;;;;;;;;;44.80;99.90;;;;;;5116307;28;19961;-79
2022/08/25 09:59:16;;;;;;;;;;;44.60;99.90;;;;;;5113862;28;19908;-79
2022/08/25 10:01:49;;;;;;;;;;;45.10;99.90;;;;;;5114169;28;19911;-79
2022/08/25 10:04:24;;;;;;;;;;;45.50;99.90;;;;;;5104635;28;19913;-79
2022/08/25 10:06:50;;;;;;;;;;;45.60;99.90;;;;;;5093854;28;19946;-78
2022/08/25 10:09:25;;;;;;;;;;;45.10;99.90;;;;;;5080658;28;20249;-78
2022/08/25 10:11:51;;;;;;;;;;;44.50;99.90;;;;;;5093051;28;20007;-79
2022/08/25 10:14:17;;;;;;;;;;;44.10;99.90;;;;;;5093404;28;19999;-78
2022/08/25 10:16:42;;;;;;;;;;;43.80;99.90;;;;;;5093326;28;19920;-78
2022/08/25 10:19:17;;;;;;;;;;;43.40;99.90;;;;;;5093699;28;20351;-78
2022/08/25 10:21:43;;;;;;;;;;;43.00;99.90;;;;;;5092961;28;20044;-78
2022/08/25 10:24:09;;;;;;;;;;;42.40;99.90;;;;;;5093446;28;19908;-79
2022/08/25 10:26:41;;;;;;;;;;;41.80;99.90;;;;;;5094095;28;19908;-78
2022/08/25 10:29:17;;;;;;;;;;;41.30;99.90;;;;;;5093466;28;19915;-78
2022/08/25 10:31:47;;;;;;;;;;;40.90;99.90;;;;;;5093027;28;20024;-78
2022/08/25 10:34:30;;;;;;;;;;;41.10;99.90;;;;;;5084464;28;19908;-78
2022/08/25 10:37:11;;;;;;;;;;;41.40;99.90;;;;;;5088656;28;20015;-82
2022/08/25 10:39:52;;;;;;;;;;;41.80;99.90;;;;;;5095684;28;20019;-79
2022/08/25 10:42:32;;;;;;;;;;;42.30;99.90;;;;;;5094763;28;19920;-80
2022/08/25 10:47:50;;;;;;;;;;;42.10;99.90;;;;;;5098417;28;20322;-79
2022/08/25 10:50:35;;;;;;;;;;;42.50;99.90;;;;;;5097672;28;19908;-78
2022/08/25 10:53:16;;;;;;;;;;;42.80;99.90;;;;;;5093908;28;19975;-79
2022/08/25 10:55:42;;;;;;;;;;;42.80;99.90;;;;;;5086250;28;20275;-81
2022/08/25 10:58:08;;;;;;;;;;;42.90;99.90;;;;;;5094577;28;19972;-81
2022/08/25 11:00:38;;;;;;;;;;;42.70;99.90;;;;;;5097531;28;20015;-81
2022/08/25 11:03:12;;;;;;;;;;;41.80;99.90;;;;;;5096494;28;19912;-84
2022/08/25 11:05:56;;;;;;;;;;;40.50;99.90;;;;;;5096401;28;19908;-85
2022/08/25 11:08:32;;;;;;;;;;;39.70;99.90;;;;;;5085663;28;19916;-84
2022/08/25 11:11:04;;;;;;;;;;;38.80;99.90;;;;;;5076643;28;19919;-84
2022/08/25 11:13:36;;;;;;;;;;;38.00;99.90;;;;;;5096625;28;19908;-84
2022/08/25 11:16:10;;;;;;;;;;;37.40;99.90;;;;;;5095920;28;19908;-84
2022/08/25 11:18:39;;;;;;;;;;;36.60;99.90;;;;;;5095936;28;19942;-84
2022/08/25 11:21:16;;;;;;;;;;;36.10;99.90;;;;;;5098377;28;19919;-84
2022/08/25 11:24:04;;;;;;;;;;;35.80;99.90;;;;;;5097628;28;19936;-83
2022/08/25 11:26:33;;;;;;;;;;;35.40;99.90;;;;;;5098840;28;19929;-83
2022/08/25 11:29:01;;;;;;;;;;;35.20;99.90;;;;;;5098735;28;20002;-83
2022/08/25 11:31:27;;;;;;;;;;;35.10;99.90;;;;;;5098924;28;19908;-83
2022/08/25 11:33:54;;;;;;;;;;;34.90;99.90;;;;;;5097119;28;19938;-83
2022/08/25 11:36:28;;;;;;;;;;;34.90;99.90;;;;;;5097180;28;20011;-83
2022/08/25 11:38:53;;;;;;;;;;;34.70;99.90;;;;;;5098188;28;19908;-83
2022/08/25 11:41:25;;;;;;;;;;;34.50;99.90;;;;;;5096302;28;19916;-83
2022/08/25 11:44:10;;;;;;;;;;;34.50;99.90;;;;;;5098498;28;19915;-83
2022/08/25 11:47:03;;;;;;;;;;;34.40;99.90;;;;;;5098793;28;19908;-83
2022/08/25 11:49:41;;;;;;;;;;;34.40;99.90;;;;;;5097851;28;19908;-83
2022/08/25 11:52:26;;;;;;;;;;;34.40;99.90;;;;;;5095929;28;20434;-83
2022/08/25 11:54:52;;;;;;;;;;;34.20;99.90;;;;;;5099148;28;19908;-83
2022/08/25 11:57:26;;;;;;;;;;;34.20;99.90;;;;;;5097057;28;19915;-72
2022/08/25 11:59:52;;;;;;;;;;;34.20;99.90;;;;;;5093558;28;19912;-81
2022/08/25 12:02:35;;;;;;;;;;;34.30;99.90;;;;;;5094442;28;19919;-81
2022/08/25 12:05:05;;;;;;;;;;;34.30;99.90;;;;;;5093038;28;20415;-81
2022/08/25 12:10:50;;;;;;;;;;;34.30;99.90;;;;;;5055813;28;19998;-80
2022/08/25 12:13:23;;;;;;;;;;;34.30;99.90;;;;;;5101996;28;19908;-80
2022/08/25 12:15:48;;;;;;;;;;;34.30;99.90;;;;;;5096456;28;20344;-80
2022/08/25 12:18:14;;;;;;;;;;;34.30;99.90;;;;;;5084735;28;20003;-80
2022/08/25 12:20:52;;;;;;;;;;;34.30;99.90;;;;;;5103069;28;19951;-81
2022/08/25 12:23:29;;;;;;;;;;;34.30;99.90;;;;;;5111941;28;19908;-81
2022/08/25 12:25:57;;;;;;;;;;;34.30;99.90;;;;;;5102266;28;19987;-80
2022/08/25 12:28:25;;;;;;;;;;;34.40;99.90;;;;;;5101093;28;19907;-80
2022/08/25 12:30:55;;;;;;;;;;;34.50;99.90;;;;;;5105723;28;19907;-81
2022/08/25 12:33:24;;;;;;;;;;;34.50;99.90;;;;;;5119021;28;19908;-81
2022/08/25 12:35:56;;;;;;;;;;;34.50;99.90;;;;;;5119877;28;19908;-81
2022/08/25 12:38:28;;;;;;;;;;;34.50;99.90;;;;;;5115571;28;19908;-83
2022/08/25 12:40:59;;;;;;;;;;;34.40;99.90;;;;;;5116256;28;19912;-82
2022/08/25 12:43:26;;;;;;;;;;;34.40;99.90;;;;;;5121117;28;19919;-82
2022/08/25 12:46:12;;;;;;;;;;;34.40;99.90;;;;;;5122159;28;19908;-82
2022/08/25 12:48:40;;;;;;;;;;;34.40;99.90;;;;;;5121084;28;19908;-73
2022/08/25 12:51:08;;;;;;;;;;;34.40;99.90;;;;;;5126833;28;19923;-83
2022/08/25 12:53:34;;;;;;;;;;;34.40;99.90;;;;;;5131662;28;19907;-84
2022/08/25 12:56:03;;;;;;;;;;;34.50;99.90;;;;;;5130828;28;19907;-84
2022/08/25 12:58:37;;;;;;;;;;;34.50;99.90;;;;;;5131547;28;19915;-83
2022/08/25 13:01:06;;;;;;;;;;;34.60;99.90;;;;;;5129931;28;20447;-83
2022/08/25 13:03:50;;;;;;;;;;;34.70;99.90;;;;;;5127947;28;19908;-84
2022/08/25 13:06:28;;;;;;;;;;;34.70;99.90;;;;;;5126938;28;19939;-82
2022/08/25 13:08:56;;;;;;;;;;;34.80;99.90;;;;;;5129362;28;19947;-84
2022/08/25 13:11:28;;;;;;;;;;;34.80;99.90;;;;;;5125537;28;19908;-83
2022/08/25 13:14:06;;;;;;;;;;;34.80;99.90;;;;;;5090902;28;20352;-82
2022/08/25 13:16:32;;;;;;;;;;;34.80;99.90;;;;;;5097249;28;19908;-83
2022/08/25 13:19:02;;;;;;;;;;;34.80;99.90;;;;;;5099263;28;20265;-84
2022/08/25 13:21:35;;;;;;;;;;;34.70;99.90;;;;;;5098785;28;19912;-83
2022/08/25 13:24:03;;;;;;;;;;;34.60;99.90;;;;;;5102551;28;20279;-83
2022/08/25 13:26:36;;;;;;;;;;;34.60;99.90;;;;;;5105801;28;19920;-83
2022/08/25 13:29:09;;;;;;;;;;;34.60;99.90;;;;;;5127995;28;19908;-84
2022/08/25 13:31:37;;;;;;;;;;;34.60;99.90;;;;;;5105430;28;20267;-83
2022/08/25 13:34:04;;;;;;;;;;;34.70;99.90;;;;;;5102664;28;19912;-83
2022/08/25 13:39:17;;;;;;;;;;;34.80;99.90;;;;;;5101009;28;19931;-85
2022/08/25 13:41:45;;;;;;;;;;;34.90;99.90;;;;;;5099260;28;19916;-85
2022/08/25 13:44:11;;;;;;;;;;;35.00;99.90;;;;;;5101211;28;19998;-86
2022/08/25 13:46:37;;;;;;;;;;;35.20;99.90;;;;;;5094794;28;20006;-86
2022/08/25 13:49:06;;;;;;;;;;;35.40;99.90;;;;;;5094089;28;20003;-86
2022/08/25 13:51:32;;;;;;;;;;;35.40;99.90;;;;;;5097938;28;20291;-84
2022/08/25 13:54:00;;;;;;;;;;;35.40;99.90;;;;;;5095550;28;19915;-85
2022/08/25 13:56:36;;;;;;;;;;;35.30;99.90;;;;;;5095474;28;19915;-85
2022/08/25 13:59:03;;;;;;;;;;;35.30;99.90;;;;;;5097535;28;19914;-85
2022/08/25 14:01:31;;;;;;;;;;;35.20;99.90;;;;;;5100251;28;19935;-85
2022/08/25 14:04:16;;;;;;;;;;;35.20;99.90;;;;;;5098532;28;19908;-72
2022/08/25 14:06:42;;;;;;;;;;;35.20;99.90;;;;;;5095692;28;20363;-85
2022/08/25 14:09:16;;;;;;;;;;;35.10;99.90;;;;;;5100623;28;19929;-85
2022/08/25 14:11:42;;;;;;;;;;;35.10;99.90;;;;;;5097231;28;19915;-82
2022/08/25 14:14:11;;;;;;;;;;;35.10;99.90;;;;;;5094429;28;19908;-84
2022/08/25 14:16:46;;;;;;;;;;;35.10;99.90;;;;;;5094960;28;20266;-84
2022/08/25 14:19:16;;;;;;;;;;;35.10;99.90;;;;;;5095504;28;19915;-85
2022/08/25 14:21:41;;;;;;;;;;;35.10;99.90;;;;;;5095140;28;19912;-85
2022/08/25 14:24:07;;;;;;;;;;;35.10;99.90;;;;;;5092886;28;20023;-85
2022/08/25 14:26:32;;;;;;;;;;;35.30;99.90;;;;;;5087897;28;19944;-84
2022/08/25 14:28:58;;;;;;;;;;;35.60;99.90;;;;;;5088866;28;19912;-84
2022/08/25 14:31:32;;;;;;;;;;;36.00;99.90;;;;;;5082820;28;19915;-84
2022/08/25 14:33:57;;;;;;;;;;;36.40;99.90;;;;;;5095555;28;20297;-83
2022/08/25 14:36:23;;;;;;;;;;;36.60;99.90;;;;;;5096526;28;19915;-83
2022/08/25 14:38:49;;;;;;;;;;;37.20;99.90;;;;;;5098497;28;19908;-83
2022/08/25 14:41:15;;;;;;;;;;;38.30;99.90;;;;;;5136148;22;19962;-83
2022/08/25 14:43:41;;;;;;;;;;;39.20;99.90;;;;;;5119570;28;19923;-85
2022/08/25 14:46:18;;;;;;;;;;;40.20;99.90;;;;;;5115252;28;20266;-85
2022/08/25 14:48:45;;;;;;;;;;;40.30;99.90;;;;;;5117946;28;19908;-83
2022/08/25 14:51:12;;;;;;;;;;;40.90;99.90;;;;;;5121493;28;19914;-84
2022/08/25 14:53:38;;;;;;;;;;;41.00;99.90;;;;;;5123324;28;20385;-83
2022/08/25 14:56:03;;;;;;;;;;;41.00;99.90;;;;;;5117195;28;20386;-83
2022/08/25 14:58:29;;;;;;;;;;;41.20;99.90;;;;;;5115880;28;19933;-83
2022/08/25 15:00:56;;;;;;;;;;;42.60;99.90;;;;;;5115338;28;19916;-83